Time;durP1;ratioP1;P1;durP2;ratioP2;P2;SDS_P1;SDS_P2;PMS_P1;PMS_P2;Temp;Humidity;BMP_temperature;BMP_pressure;BME280_temperature;BME280_humidity;BME280_pressure;Samples;Min_cycle;Max_cycle;Signal;HPM_P1;HPM_P2
2021/12/15 00:01:58;;;;;;;21.20;11.12;;;;;;;1.77;100.00;100534.17;1764381;81;21540;-87
2021/12/15 00:04:23;;;;;;;21.10;11.55;;;;;;;1.72;100.00;100539.17;1761577;81;22165;-86
2021/12/15 00:06:50;;;;;;;22.30;13.18;;;;;;;1.69;100.00;100539.48;1742922;81;20997;-83
2021/12/15 00:09:17;;;;;;;19.02;10.88;;;;;;;1.68;100.00;100532.03;1754599;81;21501;-86
2021/12/15 00:11:45;;;;;;;21.68;14.07;;;;;;;1.69;100.00;100531.04;1759763;81;21543;-87
2021/12/15 00:14:17;;;;;;;15.68;9.55;;;;;;;1.74;100.00;100536.66;1759314;81;21191;-88
2021/12/15 00:16:44;;;;;;;25.85;12.35;;;;;;;1.72;100.00;100541.33;1758797;81;21029;-73
2021/12/15 00:19:11;;;;;;;21.82;12.33;;;;;;;1.68;100.00;100532.03;1753763;81;21519;-71
2021/12/15 00:21:39;;;;;;;20.45;13.00;;;;;;;1.72;100.00;100540.00;1745199;81;21046;-72
2021/12/15 00:24:07;;;;;;;24.57;15.30;;;;;;;1.73;100.00;100532.84;1762440;81;21046;-71
2021/12/15 00:26:35;;;;;;;21.73;10.93;;;;;;;1.70;100.00;100531.87;1762206;81;21142;-71
2021/12/15 00:29:05;;;;;;;20.35;13.32;;;;;;;1.69;100.00;100524.41;1734017;81;21017;-69
2021/12/15 00:31:34;;;;;;;24.23;13.88;;;;;;;1.70;100.00;100524.74;1730849;82;20969;-70
2021/12/15 00:34:01;;;;;;;21.12;13.18;;;;;;;1.70;100.00;100527.39;1740136;81;21027;-70
2021/12/15 00:36:28;;;;;;;21.02;14.00;;;;;;;1.66;100.00;100535.37;1753789;81;21034;-74
2021/12/15 00:38:55;;;;;;;21.15;11.65;;;;;;;1.68;100.00;100531.20;1756774;81;21143;-81
2021/12/15 00:41:21;;;;;;;21.68;12.80;;;;;;;1.70;100.00;100535.84;1759323;81;21081;-84
2021/12/15 00:43:48;;;;;;;21.73;12.05;;;;;;;1.66;100.00;100542.50;1768824;80;20971;-79
2021/12/15 00:46:15;;;;;;;31.48;14.93;;;;;;;1.63;100.00;100538.87;1749972;80;21057;-78
2021/12/15 00:48:44;;;;;;;20.40;10.60;;;;;;;1.66;100.00;100545.14;1771485;80;21562;-80
2021/12/15 00:51:11;;;;;;;21.10;12.45;;;;;;;1.66;100.00;100541.17;1754750;81;21871;-83
2021/12/15 00:53:38;;;;;;;21.80;13.22;;;;;;;1.69;100.00;100530.20;1742051;80;21500;-83
2021/12/15 00:56:04;;;;;;;22.07;12.55;;;;;;;1.72;100.00;100535.19;1780784;80;21062;-77
2021/12/15 00:58:32;;;;;;;16.27;8.35;;;;;;;1.69;100.00;100528.88;1736347;81;20998;-81
2021/12/15 01:01:01;;;;;;;20.57;11.88;;;;;;;1.59;100.00;100543.66;1745325;81;20995;-78
2021/12/15 01:03:29;;;;;;;18.85;11.83;;;;;;;1.52;100.00;100532.11;1764380;81;21516;-75
2021/12/15 01:06:03;;;;;;;21.70;14.18;;;;;;;1.53;100.00;100538.23;1741024;81;20946;-77
2021/12/15 01:08:29;;;;;;;19.52;10.70;;;;;;;1.57;100.00;100539.55;1787837;80;21688;-77
2021/12/15 01:21:47;;;;;;;20.72;13.48;;;;;;;1.59;100.00;100518.48;1780789;80;21520;-70
2021/12/15 01:24:13;;;;;;;20.50;12.43;;;;;;;1.54;100.00;100515.52;1765459;80;21503;-76
2021/12/15 01:26:40;;;;;;;20.60;11.60;;;;;;;1.56;100.00;100512.20;1738374;80;21025;-76
2021/12/15 01:29:06;;;;;;;14.95;9.73;;;;;;;1.56;100.00;100504.75;1790612;80;21625;-78
2021/12/15 01:31:33;;;;;;;19.25;12.10;;;;;;;1.55;100.00;100505.25;1764739;80;21041;-76
2021/12/15 01:33:59;;;;;;;23.77;14.05;;;;;;;1.54;100.00;100506.73;1760991;80;20945;-86
2021/12/15 01:36:26;;;;;;;14.23;8.30;;;;;;;1.54;100.00;100503.59;1735744;80;21028;-76
2021/12/15 01:38:54;;;;;;;21.65;11.55;;;;;;;1.57;100.00;100502.44;1732063;81;21006;-74
2021/12/15 01:41:23;;;;;;;17.20;9.93;;;;;;;1.56;100.00;100500.77;1725147;81;21768;-77
2021/12/15 01:46:56;;;;;;;15.53;11.25;;;;;;;1.51;100.00;100499.97;1696642;84;21025;-84
2021/12/15 01:49:37;;;;;;;16.55;9.43;;;;;;;1.46;100.00;100504.95;1706486;83;21574;-79
2021/12/15 01:52:18;;;;;;;13.03;8.73;;;;;;;1.46;100.00;100501.47;1702829;84;21515;-77
2021/12/15 01:54:51;;;;;;;14.33;8.30;;;;;;;1.51;100.00;100501.78;1695942;83;21176;-81
2021/12/15 01:57:20;;;;;;;13.83;8.90;;;;;;;1.58;100.00;100507.55;1693564;83;21038;-80
2021/12/15 01:59:47;;;;;;;15.60;8.80;;;;;;;1.57;100.00;100511.22;1716015;83;21087;-80
2021/12/15 02:02:16;;;;;;;12.25;7.62;;;;;;;1.58;100.00;100508.87;1670395;83;21002;-80
2021/12/15 02:04:44;;;;;;;10.13;7.33;;;;;;;1.61;100.00;100509.04;1693215;83;22212;-71
2021/12/15 02:07:13;;;;;;;11.18;7.80;;;;;;;1.60;100.00;100504.73;1716012;83;21512;-69
2021/12/15 02:10:01;;;;;;;12.65;8.38;;;;;;;1.64;100.00;100512.66;1715934;83;21001;-83
2021/12/15 02:12:12;;;;;;;9.10;7.60;;;;;;;1.60;100.00;100514.01;1712711;83;21484;-87
2021/12/15 02:14:40;;;;;;;9.08;6.70;;;;;;;1.58;100.00;100514.70;1693259;83;20951;-73
2021/12/15 02:17:08;;;;;;;10.28;6.78;;;;;;;1.59;100.00;100513.18;1715804;83;21012;-73
2021/12/15 02:19:37;;;;;;;8.00;6.20;;;;;;;1.60;100.00;100513.52;1715309;83;21491;-88
2021/12/15 02:22:04;;;;;;;9.85;6.72;;;;;;;1.60;100.00;100517.48;1715765;83;20986;-90
2021/12/15 02:24:36;;;;;;;9.53;6.45;;;;;;;1.57;100.00;100515.19;1688203;84;21026;-85
2021/12/15 02:27:04;;;;;;;9.35;6.50;;;;;;;1.51;100.00;100508.41;1684191;83;21021;-81
2021/12/15 02:29:35;;;;;;;9.90;6.10;;;;;;;1.53;100.00;100505.11;1715359;83;20962;-87
2021/12/15 02:32:59;;;;;;;10.23;6.35;;;;;;;1.54;100.00;100518.17;1692614;83;21932;-82
2021/12/15 02:39:31;;;;;;;9.90;7.12;;;;;;;1.43;100.00;100504.48;1719207;82;21105;-86
2021/12/15 02:41:57;;;;;;;7.67;6.67;;;;;;;1.49;100.00;100498.47;1650628;85;21060;-84
2021/12/15 02:44:27;;;;;;;9.08;6.58;;;;;;;1.54;100.00;100498.78;1679318;84;21323;-84
2021/12/15 02:46:54;;;;;;;8.45;7.53;;;;;;;1.62;100.00;100493.47;1679303;84;21029;-86
2021/12/15 02:49:24;;;;;;;7.22;6.33;;;;;;;1.64;100.00;100499.41;1674549;82;21071;-86
2021/12/15 02:51:52;;;;;;;7.53;5.78;;;;;;;1.61;100.00;100501.91;1690918;82;21084;-86
2021/12/15 02:54:25;;;;;;;5.62;4.45;;;;;;;1.58;100.00;100502.77;1730892;82;21096;-89
2021/12/15 02:56:53;;;;;;;6.58;4.70;;;;;;;1.54;100.00;100508.06;1756612;81;21789;-89
2021/12/15 02:59:30;;;;;;;6.20;4.90;;;;;;;1.57;100.00;100509.89;1729899;81;20969;-86
2021/12/15 03:02:08;;;;;;;8.93;4.85;;;;;;;1.53;100.00;100510.41;1755602;81;21060;-90
2021/12/15 03:04:35;;;;;;;7.35;5.05;;;;;;;1.51;100.00;100517.20;1750611;81;21021;-87
2021/12/15 03:07:10;;;;;;;7.15;4.80;;;;;;;1.54;100.00;100514.69;1729315;81;21079;-89
2021/12/15 03:17:42;;;;;;;6.58;5.37;;;;;;;1.41;100.00;100517.06;1740700;81;21482;-88
2021/12/15 03:20:12;;;;;;;7.17;5.00;;;;;;;1.44;100.00;100514.09;1709025;83;21047;-89
2021/12/15 03:22:40;;;;;;;6.78;5.15;;;;;;;1.49;100.00;100521.83;1727531;83;20982;-85
2021/12/15 03:25:07;;;;;;;6.30;4.75;;;;;;;1.51;100.00;100521.17;1659818;83;21064;-84
2021/12/15 03:36:02;;;;;;;8.35;5.58;;;;;;;1.47;100.00;100523.01;1701726;83;21150;-88
2021/12/15 03:38:16;;;;;;;8.43;6.35;;;;;;;1.39;100.00;100523.05;1696985;83;21021;-87
2021/12/15 03:40:44;;;;;;;11.53;5.55;;;;;;;1.36;100.00;100522.87;1750286;81;21608;-88
2021/12/15 03:43:15;;;;;;;8.10;6.08;;;;;;;1.35;100.00;100519.88;1729703;81;21024;-87
2021/12/15 03:45:50;;;;;;;8.95;7.45;;;;;;;1.36;100.00;100520.72;1757890;81;21005;-83
2021/12/15 03:48:20;;;;;;;8.73;7.08;;;;;;;1.40;100.00;100515.40;1757094;81;22370;-86
2021/12/15 03:50:50;;;;;;;6.75;6.05;;;;;;;1.46;100.00;100520.86;1753447;80;21591;-86
2021/12/15 03:53:19;;;;;;;11.00;8.65;;;;;;;1.47;100.00;100524.34;1754550;81;21023;-86
2021/12/15 03:55:49;;;;;;;8.23;6.72;;;;;;;1.44;100.00;100516.73;1727969;81;21020;-90
2021/12/15 03:58:16;;;;;;;8.53;7.53;;;;;;;1.45;100.00;100523.17;1729879;81;21088;-87
2021/12/15 04:00:48;;;;;;;7.92;7.12;;;;;;;1.43;100.00;100528.33;1755424;81;21141;-81
2021/12/15 04:03:36;;;;;;;8.25;6.03;;;;;;;1.41;100.00;100528.48;1757568;81;21036;-83
2021/12/15 04:06:09;;;;;;;7.47;5.37;;;;;;;1.42;100.00;100532.80;1757116;81;20981;-82
2021/12/15 04:08:37;;;;;;;5.37;4.47;;;;;;;1.48;100.00;100540.58;1745794;81;21045;-83
2021/12/15 04:11:07;;;;;;;6.08;4.92;;;;;;;1.51;100.00;100543.70;1708010;83;21042;-83
2021/12/15 04:13:35;;;;;;;8.98;6.80;;;;;;;1.44;100.00;100550.66;1703302;83;21806;-84
2021/12/15 04:16:08;;;;;;;11.20;6.55;;;;;;;1.36;100.00;100554.67;1729986;82;21493;-85
2021/12/15 04:18:37;;;;;;;7.62;5.70;;;;;;;1.33;100.00;100545.75;1699743;83;21087;-85
2021/12/15 04:21:05;;;;;;;7.62;6.35;;;;;;;1.36;100.00;100553.84;1697517;81;21577;-84
2021/12/15 04:23:35;;;;;;;8.33;6.22;;;;;;;1.29;100.00;100557.69;1757329;81;21045;-83
2021/12/15 04:26:03;;;;;;;8.18;5.47;;;;;;;1.24;100.00;100546.77;1737427;81;21220;-85
2021/12/15 04:28:35;;;;;;;9.90;7.85;;;;;;;1.21;100.00;100546.59;1756664;81;21179;-92
2021/12/15 04:31:08;;;;;;;7.85;6.15;;;;;;;1.25;100.00;100553.69;1758075;81;20981;-92
2021/12/15 04:33:40;;;;;;;6.92;5.72;;;;;;;1.27;100.00;100552.55;1723959;83;21468;-92
2021/12/15 04:36:09;;;;;;;13.38;8.40;;;;;;;1.29;100.00;100561.16;1727906;82;21045;-91
2021/12/15 04:38:37;;;;;;;9.90;7.50;;;;;;;1.29;100.00;100559.01;1707448;81;21221;-92
2021/12/15 04:41:12;;;;;;;12.58;8.50;;;;;;;1.29;100.00;100561.66;1707405;81;21027;-90
2021/12/15 04:43:40;;;;;;;8.93;7.40;;;;;;;1.29;100.00;100566.47;1751316;81;21027;-94
2021/12/15 04:46:10;;;;;;;10.23;8.50;;;;;;;1.35;100.00;100570.73;1755034;81;21059;-95
2021/12/15 04:48:40;;;;;;;9.85;7.37;;;;;;;1.40;100.00;100569.73;1732354;82;21126;-92
2021/12/15 04:51:06;;;;;;;9.70;7.50;;;;;;;1.43;100.00;100579.52;1718865;82;21158;-91
2021/12/15 04:53:37;;;;;;;7.62;5.03;;;;;;;1.37;100.00;100571.41;1697496;82;20943;-94
2021/12/15 04:56:07;;;;;;;8.05;6.60;;;;;;;1.25;100.00;100575.72;1682763;84;21630;-94
2021/12/15 04:58:38;;;;;;;9.58;8.60;;;;;;;1.24;100.00;100570.11;1733405;82;21455;-90
2021/12/15 05:01:09;;;;;;;12.20;7.40;;;;;;;1.29;100.00;100584.18;1696759;83;21558;-93
2021/12/15 05:03:38;;;;;;;10.88;7.62;;;;;;;1.28;100.00;100567.45;1664225;84;21679;-94
2021/12/15 05:06:06;;;;;;;10.63;8.00;;;;;;;1.26;100.00;100575.22;1706003;84;21518;-90
2021/12/15 05:08:33;;;;;;;12.28;7.95;;;;;;;1.27;100.00;100579.04;1706309;82;21036;-88
2021/12/15 05:11:03;;;;;;;9.95;7.35;;;;;;;1.29;100.00;100585.51;1765122;81;21011;-87
2021/12/15 05:13:56;;;;;;;9.05;6.55;;;;;;;1.27;100.00;100576.88;1722509;82;21032;-90
2021/12/15 05:16:26;;;;;;;8.53;7.35;;;;;;;1.23;100.00;100576.41;1764275;81;20943;-88
2021/12/15 05:18:57;;;;;;;17.25;8.38;;;;;;;1.15;100.00;100578.23;1735646;82;21013;-85
2021/12/15 05:21:32;;;;;;;15.58;10.75;;;;;;;1.11;100.00;100580.38;1735431;82;20992;-85
2021/12/15 05:24:08;;;;;;;11.93;7.20;;;;;;;1.15;100.00;100576.91;1683409;82;26850;-85
2021/12/15 05:26:30;;;;;;;9.50;7.08;;;;;;;1.19;100.00;100585.69;1721024;82;21027;-84
2021/12/15 05:29:11;;;;;;;11.28;8.18;;;;;;;1.23;100.00;100580.87;1724703;81;20929;-87
2021/12/15 05:31:44;;;;;;;11.90;8.90;;;;;;;1.26;100.00;100584.50;1739103;79;20806;-87
2021/12/15 05:34:17;;;;;;;12.60;8.93;;;;;;;1.30;100.00;100576.05;1744100;79;20833;-86
2021/12/15 05:36:45;;;;;;;9.80;7.60;;;;;;;1.32;100.00;100579.86;1754348;80;21037;-87
2021/12/15 05:39:15;;;;;;;13.93;8.73;;;;;;;1.34;100.00;100577.05;1679699;82;21073;-85
2021/12/15 05:41:43;;;;;;;14.80;9.50;;;;;;;1.31;100.00;100583.00;1697592;80;21119;-86
2021/12/15 05:44:12;;;;;;;9.53;8.00;;;;;;;1.24;100.00;100588.66;1742852;81;20901;-87
2021/12/15 05:46:43;;;;;;;10.63;7.35;;;;;;;1.27;100.00;100588.81;1744482;79;20979;-87
2021/12/15 05:49:13;;;;;;;8.23;4.80;;;;;;;1.30;100.00;100594.59;1740193;78;21010;-87
2021/12/15 05:51:46;;;;;;;8.43;7.47;;;;;;;1.30;100.00;100602.54;1739194;79;20968;-86
2021/12/15 05:54:12;;;;;;;10.30;8.40;;;;;;;1.22;100.00;100598.59;1739624;81;21599;-84
2021/12/15 05:56:40;;;;;;;9.95;7.00;;;;;;;1.23;100.00;100606.04;1762249;79;20940;-87
2021/12/15 05:59:07;;;;;;;9.43;7.12;;;;;;;1.25;100.00;100614.62;1720557;81;20979;-90
2021/12/15 06:01:34;;;;;;;9.35;7.00;;;;;;;1.26;100.00;100611.00;1716514;82;21028;-85
2021/12/15 06:04:06;;;;;;;9.25;7.17;;;;;;;1.27;100.00;100614.81;1736086;81;21006;-87
2021/12/15 06:06:36;;;;;;;7.65;6.03;;;;;;;1.27;100.00;100621.94;1710060;82;21401;-86
2021/12/15 06:09:04;;;;;;;8.53;6.37;;;;;;;1.27;100.00;100624.09;1709290;82;21011;-89
2021/12/15 06:11:52;;;;;;;13.40;7.97;;;;;;;1.27;100.00;100620.11;1710149;82;20991;-88
2021/12/15 06:14:30;;;;;;;8.23;5.62;;;;;;;1.23;100.00;100623.27;1738917;79;21011;-89
2021/12/15 06:17:02;;;;;;;7.42;6.22;;;;;;;1.23;100.00;100631.21;1734188;82;20995;-89
2021/12/15 06:19:34;;;;;;;8.05;6.37;;;;;;;1.20;100.00;100630.23;1702037;83;21026;-92
2021/12/15 06:22:05;;;;;;;6.83;6.12;;;;;;;1.15;100.00;100632.55;1724946;82;21513;-89
2021/12/15 06:24:38;;;;;;;12.75;8.18;;;;;;;1.15;100.00;100624.60;1724331;83;21026;-86
2021/12/15 06:27:18;;;;;;;10.08;7.42;;;;;;;1.14;100.00;100629.06;1724178;83;21067;-85
2021/12/15 06:29:42;;;;;;;12.03;9.23;;;;;;;1.14;100.00;100624.27;1676306;83;21003;-89
2021/12/15 06:32:09;;;;;;;6.90;6.22;;;;;;;1.10;100.00;100631.72;1679107;84;22107;-87
2021/12/15 06:34:45;;;;;;;11.68;7.67;;;;;;;1.06;100.00;100638.31;1670676;84;21088;-88
2021/12/15 06:37:12;;;;;;;6.90;5.55;;;;;;;1.10;100.00;100637.02;1758517;80;21006;-84
2021/12/15 06:39:41;;;;;;;7.20;5.05;;;;;;;1.15;100.00;100643.14;1725329;83;21054;-85
2021/12/15 06:42:11;;;;;;;7.83;5.42;;;;;;;1.13;100.00;100635.35;1724542;82;21106;-84
2021/12/15 06:44:41;;;;;;;6.35;5.45;;;;;;;1.12;100.00;100634.19;1722407;83;21498;-85
2021/12/15 06:58:24;;;;;;;6.67;5.15;;;;;;;0.98;100.00;100644.95;1701379;83;21170;-90
2021/12/15 07:00:56;;;;;;;5.00;4.47;;;;;;;0.95;100.00;100644.45;1696225;84;20920;-87
2021/12/15 07:03:24;;;;;;;5.83;4.47;;;;;;;0.91;100.00;100634.70;1730555;82;21042;-85
2021/12/15 07:05:52;;;;;;;5.92;5.33;;;;;;;0.88;100.00;100642.95;1737647;82;21031;-86
2021/12/15 07:08:21;;;;;;;3.55;3.30;;;;;;;0.88;100.00;100657.02;1700100;83;21028;-84
2021/12/15 07:10:52;;;;;;;5.58;3.55;;;;;;;0.81;100.00;100648.09;1707417;84;21148;-90
2021/12/15 07:13:21;;;;;;;4.72;4.22;;;;;;;0.85;100.00;100657.36;1750657;81;21099;-85
2021/12/15 07:15:59;;;;;;;7.12;4.72;;;;;;;0.85;100.00;100657.84;1683803;84;21522;-89
2021/12/15 07:18:27;;;;;;;6.03;4.22;;;;;;;0.88;100.00;100660.99;1685470;84;21034;-90
2021/12/15 07:21:05;;;;;;;5.30;4.80;;;;;;;0.92;100.00;100664.13;1699838;83;21091;-89
2021/12/15 07:23:35;;;;;;;6.03;4.45;;;;;;;0.86;100.00;100664.28;1682141;84;22591;-91
2021/12/15 07:26:10;;;;;;;7.30;5.63;;;;;;;0.91;100.00;100660.34;1678895;85;20946;-88
2021/12/15 07:28:43;;;;;;;6.53;4.80;;;;;;;0.92;100.00;100669.43;1703821;84;21030;-84
2021/12/15 07:31:22;;;;;;;7.45;4.78;;;;;;;0.95;100.00;100670.94;1701779;84;20995;-84
2021/12/15 07:33:48;;;;;;;7.03;5.10;;;;;;;0.99;100.00;100673.59;1652462;85;21069;-85
2021/12/15 07:36:29;;;;;;;11.08;5.95;;;;;;;1.03;100.00;100678.39;1704113;84;21303;-87
2021/12/15 07:38:59;;;;;;;6.72;4.28;;;;;;;1.03;100.00;100682.36;1658291;85;21641;-87
2021/12/15 07:41:41;;;;;;;5.78;4.62;;;;;;;1.07;100.00;100683.69;1656505;85;21058;-86
2021/12/15 07:44:11;;;;;;;5.87;4.35;;;;;;;1.10;100.00;100689.17;1696488;84;21050;-87
2021/12/15 07:46:47;;;;;;;7.00;4.87;;;;;;;1.14;100.00;100681.22;1701921;84;20947;-86
2021/12/15 07:49:44;;;;;;;9.85;8.50;;;;;;;1.13;100.00;100690.98;1705277;83;20943;-86
2021/12/15 07:52:21;;;;;;;9.63;5.00;;;;;;;1.20;100.00;100698.59;1704067;84;21002;-90
2021/12/15 07:54:56;;;;;;;6.67;4.97;;;;;;;1.19;100.00;100702.27;1705358;83;20954;-89
2021/12/15 07:57:33;;;;;;;7.15;4.60;;;;;;;1.19;100.00;100709.38;1705874;84;21093;-87
2021/12/15 08:00:10;;;;;;;6.60;4.08;;;;;;;1.16;100.00;100709.69;1699378;83;21524;-86
2021/12/15 08:02:45;;;;;;;5.45;4.90;;;;;;;1.12;100.00;100709.19;1734970;82;21014;-89
2021/12/15 08:05:13;;;;;;;4.80;4.22;;;;;;;1.09;100.00;100714.83;1687516;84;20999;-90
2021/12/15 08:07:43;;;;;;;6.03;5.42;;;;;;;1.09;100.00;100712.67;1730288;82;21107;-91
2021/12/15 08:10:12;;;;;;;8.23;5.95;;;;;;;1.08;100.00;100711.02;1729611;82;21035;-89
2021/12/15 08:12:45;;;;;;;6.97;5.15;;;;;;;1.11;100.00;100715.97;1730269;82;21004;-88
2021/12/15 08:15:15;;;;;;;9.98;5.55;;;;;;;1.15;100.00;100721.30;1697819;83;21011;-91
2021/12/15 08:17:46;;;;;;;7.72;6.42;;;;;;;1.17;100.00;100714.83;1698258;83;20991;-89
2021/12/15 08:20:12;;;;;;;6.50;5.53;;;;;;;1.21;100.00;100717.97;1699348;83;22232;-89
2021/12/15 08:22:41;;;;;;;8.78;7.30;;;;;;;1.28;100.00;100716.34;1724564;83;20996;-90
2021/12/15 08:25:13;;;;;;;7.03;4.58;;;;;;;1.26;100.00;100715.66;1700966;83;21072;-86
2021/12/15 08:27:50;;;;;;;;;;;;;;;1.28;100.00;100725.61;1703699;83;21069;-89
2021/12/15 08:30:29;;;;;;;6.10;4.33;;;;;;;1.27;100.00;100726.11;1732971;81;20098;-89
2021/12/15 08:33:05;;;;;;;7.87;4.45;;;;;;;1.22;99.59;100724.94;1756974;81;22298;-87
2021/12/15 08:35:42;;;;;;;4.00;3.08;;;;;;;1.24;99.56;100721.64;1734264;81;20884;-89
2021/12/15 08:38:12;;;;;;;3.30;3.00;;;;;;;1.24;99.01;100719.83;1734583;81;21012;-87
2021/12/15 08:40:42;;;;;;;3.50;3.17;;;;;;;1.22;98.50;100720.47;1694450;83;21088;-91
2021/12/15 08:43:12;;;;;;;4.03;3.40;;;;;;;1.20;98.21;100715.02;1701491;83;21007;-92
2021/12/15 08:45:43;;;;;;;2.83;2.52;;;;;;;1.13;97.54;100728.08;1724758;82;20975;-90
2021/12/15 08:48:14;;;;;;;2.50;2.30;;;;;;;1.11;97.61;100718.13;1701280;83;20984;-93
2021/12/15 08:50:42;;;;;;;3.15;2.85;;;;;;;1.14;97.60;100714.34;1725032;83;20995;-94
2021/12/15 08:53:11;;;;;;;2.62;2.45;;;;;;;1.17;97.49;100713.50;1702969;83;21117;-95
2021/12/15 08:55:44;;;;;;;3.98;3.12;;;;;;;1.19;97.40;100708.05;1725638;83;21092;-92
2021/12/15 08:58:16;;;;;;;3.77;3.15;;;;;;;1.19;97.30;100712.86;1725528;83;21536;-84
2021/12/15 09:00:43;;;;;;;3.20;2.70;;;;;;;1.20;96.90;100708.39;1675999;83;22271;-82
2021/12/15 09:03:19;;;;;;;2.80;2.60;;;;;;;1.16;96.68;100709.69;1702973;83;21598;-83
2021/12/15 09:05:51;;;;;;;2.90;2.70;;;;;;;1.14;96.82;100713.84;1722724;83;21865;-83
2021/12/15 09:08:23;;;;;;;;;;;;;;;1.13;96.85;100716.16;1725449;83;21044;-81
2021/12/15 09:10:56;;;;;;;3.42;3.12;;;;;;;1.15;96.97;100713.35;1700368;83;20141;-82
2021/12/15 09:13:29;;;;;;;3.40;3.10;;;;;;;1.19;96.87;100700.11;1725447;83;21048;-92
2021/12/15 09:15:57;;;;;;;2.80;2.60;;;;;;;1.13;96.53;100698.94;1700393;84;21554;-89
2021/12/15 09:18:31;;;;;;;2.87;2.67;;;;;;;1.10;96.37;100705.06;1730663;82;20987;-91
2021/12/15 09:21:00;;;;;;;3.05;2.77;;;;;;;1.07;96.23;100698.26;1731139;83;21034;-84
2021/12/15 09:23:31;;;;;;;3.25;2.95;;;;;;;1.11;96.27;100694.78;1757888;81;21532;-89
2021/12/15 09:25:58;;;;;;;2.95;2.75;;;;;;;1.17;96.35;100692.31;1730756;83;21063;-85
2021/12/15 09:28:30;;;;;;;3.52;3.22;;;;;;;1.15;95.73;100682.36;1708789;82;21069;-83
2021/12/15 09:30:56;;;;;;;3.72;3.12;;;;;;;1.19;95.77;100680.23;1740349;81;23500;-81
2021/12/15 09:33:28;;;;;;;4.65;4.08;;;;;;;1.20;95.76;100686.67;1699918;82;21009;-84
2021/12/15 09:35:56;;;;;;;5.45;3.42;;;;;;;1.18;95.24;100683.38;1749182;82;21027;-85
2021/12/15 09:38:22;;;;;;;3.77;3.15;;;;;;;1.20;94.89;100677.92;1752083;81;20869;-86
2021/12/15 09:40:54;;;;;;;2.98;2.77;;;;;;;1.24;95.04;100678.75;1751221;82;20968;-86
2021/12/15 09:43:27;;;;;;;3.05;2.75;;;;;;;1.34;95.14;100689.68;1729780;82;21253;-85
2021/12/15 09:46:00;;;;;;;4.70;3.45;;;;;;;1.41;94.75;100688.84;1729810;83;20999;-86
2021/12/15 10:02:24;;;;;;;3.50;2.87;;;;;;;1.23;91.17;100675.77;1715793;83;20987;-86
2021/12/15 10:18:50;;;;;;;3.50;2.83;;;;;;;1.28;90.11;100678.75;1725094;83;21513;-94
2021/12/15 10:21:28;;;;;;;2.70;2.50;;;;;;;1.29;90.23;100672.45;1697655;83;20997;-92
2021/12/15 10:24:10;;;;;;;3.72;2.75;;;;;;;1.35;90.31;100666.13;1723541;83;20979;-92
2021/12/15 10:26:55;;;;;;;3.17;2.87;;;;;;;1.38;90.36;100665.33;1722921;83;20995;-90
2021/12/15 10:29:25;;;;;;;3.80;3.50;;;;;;;1.43;90.35;100654.22;1734492;82;20956;-96
2021/12/15 10:32:07;;;;;;;7.12;5.40;;;;;;;1.43;90.06;100654.22;1722624;81;23026;-92
2021/12/15 10:34:40;;;;;;;8.80;6.83;;;;;;;1.41;90.03;100653.05;1710384;83;21056;-93
2021/12/15 10:37:11;;;;;;;13.88;7.70;;;;;;;1.42;90.25;100649.42;1713602;83;21670;-90
2021/12/15 10:42:44;;;;;;;8.13;4.17;;;;;;;1.43;89.90;100656.88;1715836;81;21133;-85
2021/12/15 10:45:41;;;;;;;3.37;3.08;;;;;;;1.40;89.84;100654.05;1775205;79;20915;-92
2021/12/15 10:48:35;;;;;;;3.05;2.47;;;;;;;1.37;89.83;100650.91;1746560;81;21059;-96
2021/12/15 10:51:33;;;;;;;3.60;3.30;;;;;;;1.29;89.48;100647.78;1771051;81;20991;-96
2021/12/15 10:54:14;;;;;;;2.50;2.17;;;;;;;1.25;89.62;100655.20;1778796;79;20892;-93
2021/12/15 10:56:55;;;;;;;2.05;1.90;;;;;;;1.24;89.62;100647.45;1754157;81;20909;-88
2021/12/15 10:59:30;;;;;;;1.70;1.60;;;;;;;1.18;89.25;100644.96;1742397;81;20975;-88
2021/12/15 11:02:12;;;;;;;2.92;2.55;;;;;;;1.11;89.17;100640.47;1772448;81;21065;-90
2021/12/15 11:05:01;;;;;;;3.00;2.72;;;;;;;1.06;89.39;100650.23;1744504;81;21050;-92
2021/12/15 11:07:54;;;;;;;6.08;2.30;;;;;;;1.04;89.65;100647.44;1743433;82;21037;-90
2021/12/15 11:10:38;;;;;;;3.80;3.42;;;;;;;1.04;89.95;100642.14;1744625;82;21476;-93
2021/12/15 11:13:16;;;;;;;5.17;2.83;;;;;;;1.02;89.75;100644.94;1743788;82;21075;-90
2021/12/15 11:15:49;;;;;;;2.25;2.15;;;;;;;1.00;89.57;100648.77;1743036;82;21021;-87
2021/12/15 11:18:22;;;;;;;2.30;2.10;;;;;;;0.96;89.48;100648.24;1723289;82;21098;-86
2021/12/15 11:20:54;;;;;;;3.20;2.25;;;;;;;0.96;89.45;100644.27;1768136;80;21557;-87
2021/12/15 11:23:25;;;;;;;2.52;2.30;;;;;;;0.98;89.56;100636.17;1776306;80;21010;-86
2021/12/15 11:26:02;;;;;;;2.45;2.25;;;;;;;0.97;89.47;100639.31;1770890;80;21161;-84
2021/12/15 11:28:47;;;;;;;2.83;2.42;;;;;;;0.93;89.23;100655.70;1751013;79;21025;-85
2021/12/15 11:31:25;;;;;;;2.52;2.33;;;;;;;0.87;88.75;100655.36;1774618;80;21483;-77
2021/12/15 11:34:01;;;;;;;2.92;2.20;;;;;;;0.81;88.61;100659.17;1764881;79;22173;-75
2021/12/15 11:36:35;;;;;;;2.65;2.10;;;;;;;0.78;88.86;100655.02;1801563;79;21527;-79
2021/12/15 11:39:16;;;;;;;2.72;2.50;;;;;;;0.77;88.89;100650.70;1777801;79;21031;-75
2021/12/15 11:41:50;;;;;;;2.60;2.40;;;;;;;0.76;88.89;100654.37;1753965;80;38251;-75
2021/12/15 11:44:19;;;;;;;2.30;2.17;;;;;;;0.75;88.51;100655.35;1776791;80;21084;-74
2021/12/15 11:46:55;;;;;;;2.62;2.42;;;;;;;0.76;88.49;100652.21;1744663;81;21018;-76
2021/12/15 11:49:40;;;;;;;2.35;2.15;;;;;;;0.78;88.45;100645.75;1716714;82;21390;-73
2021/12/15 11:52:12;;;;;;;3.03;2.53;;;;;;;0.78;88.11;100640.95;1749237;81;21070;-72
2021/12/15 11:54:49;;;;;;;3.30;3.00;;;;;;;0.75;87.75;100654.03;1746340;81;21063;-74
2021/12/15 11:57:30;;;;;;;3.85;3.45;;;;;;;0.72;87.63;100637.13;1765951;81;22208;-73
2021/12/15 12:00:14;;;;;;;5.33;3.83;;;;;;;0.68;86.95;100631.00;1737754;82;20982;-88
2021/12/15 12:02:47;;;;;;;4.08;3.65;;;;;;;0.62;87.44;100652.84;1744565;81;20995;-77
2021/12/15 12:05:25;;;;;;;2.60;2.15;;;;;;;0.63;87.78;100650.51;1770028;81;20986;-78
2021/12/15 12:08:06;;;;;;;3.55;2.75;;;;;;;0.67;87.88;100651.86;1744526;81;21089;-77
2021/12/15 12:10:47;;;;;;;1.87;1.70;;;;;;;0.67;87.58;100655.31;1755015;80;20987;-86
2021/12/15 12:13:28;;;;;;;1.93;1.80;;;;;;;0.65;86.84;100661.28;1778013;80;21046;-78
2021/12/15 12:16:01;;;;;;;2.20;2.08;;;;;;;0.66;86.61;100667.41;1722313;82;21611;-73
2021/12/15 12:18:30;;;;;;;4.47;2.97;;;;;;;0.60;85.78;100654.32;1709193;82;21085;-77
2021/12/15 12:21:04;;;;;;;4.20;2.60;;;;;;;0.51;85.99;100651.81;1756256;80;21043;-76
2021/12/15 12:23:32;;;;;;;3.50;3.20;;;;;;;0.46;86.28;100654.95;1747811;81;21064;-81
2021/12/15 12:26:05;;;;;;;3.10;2.50;;;;;;;0.49;86.32;100663.87;1729413;82;20941;-80
2021/12/15 12:28:40;;;;;;;5.27;3.20;;;;;;;0.46;86.26;100660.23;1750926;82;21005;-77
2021/12/15 12:31:12;;;;;;;2.90;2.70;;;;;;;0.43;86.35;100670.64;1731109;79;21576;-76
2021/12/15 12:33:41;;;;;;;2.57;2.40;;;;;;;0.42;86.13;100670.33;1767721;79;21151;-86
2021/12/15 12:36:18;;;;;;;2.30;2.10;;;;;;;0.39;85.57;100677.73;1751834;81;21144;-79
2021/12/15 12:38:52;;;;;;;4.03;2.33;;;;;;;0.36;85.28;100672.77;1756044;80;21090;-87
2021/12/15 12:41:24;;;;;;;2.40;2.07;;;;;;;0.35;85.39;100676.39;1755683;81;20994;-76
2021/12/15 12:43:54;;;;;;;5.77;4.43;;;;;;;0.36;85.39;100666.16;1768102;81;21010;-77
2021/12/15 12:46:36;;;;;;;2.93;2.70;;;;;;;0.35;84.60;100677.23;1763930;80;21020;-73
2021/12/15 13:00:43;;;;;;;11.50;4.87;;;;;;;0.27;85.48;100682.50;1781924;80;21054;-78
2021/12/15 13:03:18;;;;;;;7.93;5.30;;;;;;;0.26;85.77;100686.62;1788469;79;21547;-82
2021/12/15 13:05:57;;;;;;;8.63;5.03;;;;;;;0.19;86.20;100686.41;1796904;79;21651;-83
2021/12/15 13:08:45;;;;;;;11.17;7.10;;;;;;;0.11;86.77;100681.58;1788638;79;20931;-81
2021/12/15 13:11:35;;;;;;;17.27;8.50;;;;;;;0.10;87.15;100674.63;1795974;79;21481;-83
2021/12/15 13:14:09;;;;;;;16.30;9.50;;;;;;;0.06;87.65;100670.16;1794351;79;21515;-89
2021/12/15 13:16:53;;;;;;;17.23;9.93;;;;;;;0.02;88.18;100670.63;1797131;79;22257;-81